createdAt,value
2022-12-31T00:02:20.307Z,13.35
2022-12-31T00:07:21.783Z,11.10
2022-12-31T00:12:23.279Z,14.35
2022-12-31T00:17:24.726Z,17.17
2022-12-31T00:22:26.194Z,15.75
2022-12-31T00:27:27.639Z,11.40
2022-12-31T00:32:29.105Z,13.02
2022-12-31T00:37:30.549Z,12.38
2022-12-31T00:42:31.980Z,12.90
2022-12-31T00:47:33.441Z,13.70
2022-12-31T00:52:34.879Z,14.45
2022-12-31T00:57:36.342Z,12.68
2022-12-31T01:02:38.000Z,12.05
2022-12-31T01:07:39.621Z,11.40
2022-12-31T01:12:41.058Z,11.80
2022-12-31T01:17:42.482Z,11.68
2022-12-31T01:22:43.933Z,13.52
2022-12-31T01:27:45.398Z,15.60
2022-12-31T01:32:46.826Z,12.77
2022-12-31T01:37:48.256Z,10.05
2022-12-31T01:42:49.677Z,14.10
2022-12-31T01:47:51.156Z,9.05
2022-12-31T01:52:52.642Z,6.13
2022-12-31T01:57:54.085Z,5.72
2022-12-31T02:02:55.529Z,6.35
2022-12-31T02:07:56.997Z,5.65
2022-12-31T02:12:58.420Z,5.40
2022-12-31T02:17:59.856Z,8.02
2022-12-31T02:23:01.271Z,7.13
2022-12-31T02:28:02.793Z,6.70
2022-12-31T02:33:04.270Z,7.00
2022-12-31T02:38:05.708Z,7.03
2022-12-31T02:43:07.255Z,7.60
2022-12-31T02:48:08.712Z,6.70
2022-12-31T02:53:10.176Z,8.90
2022-12-31T02:58:11.639Z,6.32
2022-12-31T03:03:13.116Z,5.55
2022-12-31T03:08:14.552Z,5.15
2022-12-31T03:13:15.974Z,8.48
2022-12-31T03:18:17.400Z,6.45
2022-12-31T03:23:18.833Z,6.95
2022-12-31T03:28:20.334Z,7.47
2022-12-31T03:33:21.784Z,6.03
2022-12-31T03:38:23.244Z,8.43
2022-12-31T03:43:24.721Z,6.80
2022-12-31T03:48:26.215Z,8.05
2022-12-31T03:53:27.702Z,5.97
2022-12-31T03:58:29.146Z,6.60
2022-12-31T04:03:30.626Z,6.72
2022-12-31T04:08:32.375Z,7.10
2022-12-31T04:13:33.841Z,7.07
2022-12-31T04:18:35.310Z,9.07
2022-12-31T04:23:36.743Z,6.88
2022-12-31T04:28:38.190Z,5.30
2022-12-31T04:33:39.660Z,6.28
2022-12-31T04:38:41.142Z,6.28
2022-12-31T04:43:42.603Z,4.50
2022-12-31T04:48:44.036Z,6.70
2022-12-31T04:53:45.473Z,6.57
2022-12-31T04:58:46.939Z,5.10
2022-12-31T05:03:48.409Z,5.18
2022-12-31T05:08:49.838Z,5.47
2022-12-31T05:13:51.259Z,4.47
2022-12-31T05:18:52.697Z,4.05
2022-12-31T05:23:54.173Z,3.72
2022-12-31T05:28:55.600Z,4.88
2022-12-31T05:33:57.061Z,4.35
2022-12-31T05:38:58.529Z,3.97
2022-12-31T05:43:59.962Z,4.15
2022-12-31T05:49:01.432Z,3.25
2022-12-31T05:54:02.915Z,2.90
2022-12-31T05:59:04.402Z,3.05
2022-12-31T06:04:05.971Z,3.63
2022-12-31T06:09:07.656Z,3.67
2022-12-31T06:14:09.125Z,5.45
2022-12-31T06:19:10.591Z,2.88
2022-12-31T06:24:12.073Z,3.35
2022-12-31T06:29:13.546Z,3.72
2022-12-31T06:34:15.016Z,3.33
2022-12-31T06:39:16.444Z,2.92
2022-12-31T06:44:17.914Z,3.83
2022-12-31T06:49:19.453Z,3.92
2022-12-31T06:54:20.927Z,4.50
2022-12-31T06:59:22.364Z,3.92
2022-12-31T07:04:23.832Z,2.78
2022-12-31T07:09:25.274Z,3.42
2022-12-31T07:14:26.738Z,4.07
2022-12-31T07:19:28.207Z,7.93
2022-12-31T07:24:29.669Z,4.13
2022-12-31T07:29:31.156Z,3.65
2022-12-31T07:34:32.612Z,2.80
2022-12-31T07:39:34.081Z,3.88
2022-12-31T07:44:35.573Z,3.22
2022-12-31T07:49:37.033Z,3.65
2022-12-31T07:54:38.489Z,2.83
2022-12-31T07:59:39.959Z,2.78
2022-12-31T08:04:41.384Z,2.58
2022-12-31T08:09:42.830Z,2.38
2022-12-31T08:14:44.353Z,2.60
2022-12-31T08:19:45.906Z,1.65
2022-12-31T08:24:47.357Z,2.42
2022-12-31T08:29:48.819Z,1.88
2022-12-31T08:34:50.258Z,2.25
2022-12-31T08:39:51.716Z,3.85
2022-12-31T08:44:53.162Z,2.13
2022-12-31T08:49:54.637Z,3.45
2022-12-31T08:54:56.105Z,2.33
2022-12-31T08:59:57.565Z,2.72
2022-12-31T09:04:59.032Z,1.83
2022-12-31T09:10:00.495Z,1.65
2022-12-31T09:15:01.926Z,2.95
2022-12-31T09:20:03.370Z,1.98
2022-12-31T09:25:04.831Z,1.95
2022-12-31T09:30:06.303Z,1.48
2022-12-31T09:35:07.738Z,1.83
2022-12-31T09:40:09.204Z,2.55
2022-12-31T09:45:10.708Z,1.70
2022-12-31T09:50:12.200Z,2.05
2022-12-31T09:55:13.901Z,3.00
2022-12-31T10:00:15.365Z,3.42
2022-12-31T10:05:16.816Z,2.78
2022-12-31T10:10:18.510Z,2.60
2022-12-31T10:15:20.069Z,3.88
2022-12-31T10:20:21.773Z,3.58
2022-12-31T10:25:37.717Z,2.85
2022-12-31T10:30:40.802Z,2.55
2022-12-31T10:35:42.437Z,2.42
2022-12-31T10:40:44.115Z,2.33
2022-12-31T10:45:46.147Z,2.55
2022-12-31T10:50:47.834Z,2.45
2022-12-31T10:55:49.305Z,2.58
2022-12-31T11:00:52.279Z,3.13
2022-12-31T11:05:53.818Z,1.90
2022-12-31T11:10:55.264Z,3.03
2022-12-31T11:15:56.906Z,3.65
2022-12-31T11:20:58.391Z,2.55
2022-12-31T11:25:59.991Z,2.25
2022-12-31T11:31:01.530Z,2.72
2022-12-31T11:36:03.126Z,2.97
2022-12-31T11:41:04.627Z,2.22
2022-12-31T11:46:06.156Z,3.40
2022-12-31T11:51:07.627Z,1.92
2022-12-31T11:56:09.146Z,2.95
2022-12-31T12:01:10.669Z,2.08
2022-12-31T12:06:12.143Z,3.78
2022-12-31T12:11:13.618Z,2.33
2022-12-31T12:16:15.173Z,3.20
2022-12-31T12:21:16.726Z,2.90
2022-12-31T12:26:18.197Z,3.00
2022-12-31T12:31:19.736Z,3.90
2022-12-31T12:36:21.236Z,2.97
2022-12-31T12:41:22.719Z,3.33
2022-12-31T12:46:24.385Z,4.15
2022-12-31T12:51:25.850Z,4.10
2022-12-31T12:56:27.348Z,3.85
2022-12-31T13:01:28.929Z,4.90
2022-12-31T13:06:30.424Z,4.30
2022-12-31T13:11:31.917Z,2.97
2022-12-31T13:16:33.402Z,3.88
2022-12-31T13:21:34.918Z,3.20
2022-12-31T13:26:36.380Z,3.63
2022-12-31T13:31:37.903Z,4.38
2022-12-31T13:36:39.435Z,4.65
2022-12-31T13:41:40.902Z,4.45
2022-12-31T13:46:42.346Z,4.35
2022-12-31T13:51:43.835Z,3.30
2022-12-31T13:56:45.271Z,3.53
2022-12-31T14:01:46.754Z,4.43
2022-12-31T14:06:48.380Z,3.17
2022-12-31T14:11:49.976Z,3.92
2022-12-31T14:16:51.759Z,3.60
2022-12-31T14:21:53.345Z,5.13
2022-12-31T14:26:54.917Z,4.13
2022-12-31T14:31:56.480Z,4.82
2022-12-31T14:36:57.955Z,3.60
2022-12-31T14:41:59.498Z,5.45
2022-12-31T14:47:00.949Z,5.93
2022-12-31T14:52:02.583Z,5.43
2022-12-31T14:57:04.096Z,4.80
2022-12-31T15:02:05.598Z,4.95
2022-12-31T15:07:07.419Z,4.25
2022-12-31T15:12:08.922Z,4.85
2022-12-31T15:17:10.469Z,6.15
2022-12-31T15:22:11.966Z,6.03
2022-12-31T15:27:13.473Z,5.53
2022-12-31T15:32:15.147Z,6.25
2022-12-31T15:37:19.111Z,4.40
2022-12-31T15:42:37.819Z,5.25
2022-12-31T15:47:40.347Z,4.88
2022-12-31T15:52:41.846Z,5.35
2022-12-31T15:57:44.386Z,5.70
2022-12-31T16:02:45.923Z,5.70
2022-12-31T16:07:47.492Z,5.60
2022-12-31T16:12:49.025Z,4.43
2022-12-31T16:17:50.489Z,5.10
2022-12-31T16:22:52.011Z,5.45
2022-12-31T16:27:53.478Z,7.90
2022-12-31T16:32:55.012Z,6.60
2022-12-31T16:37:56.547Z,4.93
2022-12-31T16:42:58.032Z,6.53
2022-12-31T16:47:59.531Z,6.25
2022-12-31T16:53:01.162Z,7.50
2022-12-31T16:58:02.813Z,5.82
2022-12-31T17:03:04.349Z,5.50
2022-12-31T17:08:05.799Z,5.82
2022-12-31T17:18:28.872Z,7.15
2022-12-31T17:23:30.387Z,6.22
2022-12-31T17:28:31.850Z,7.03
2022-12-31T17:33:33.352Z,5.80
2022-12-31T17:38:34.857Z,5.70
2022-12-31T17:43:36.362Z,5.30
2022-12-31T17:48:37.834Z,5.38
2022-12-31T17:53:39.448Z,6.85
2022-12-31T17:58:41.136Z,4.75
2022-12-31T18:03:42.700Z,4.75
2022-12-31T18:08:44.170Z,5.57
2022-12-31T18:13:45.699Z,6.00
2022-12-31T18:18:47.155Z,4.30
2022-12-31T18:23:48.623Z,4.82
2022-12-31T18:28:50.073Z,6.90
2022-12-31T18:33:51.521Z,3.47
2022-12-31T18:38:53.008Z,3.88
2022-12-31T18:43:54.481Z,3.95
2022-12-31T18:48:55.987Z,4.03
2022-12-31T18:53:57.508Z,5.63
2022-12-31T18:58:58.969Z,5.45
2022-12-31T19:04:00.645Z,4.13
2022-12-31T19:09:02.106Z,4.43
2022-12-31T19:14:03.571Z,5.28
2022-12-31T19:19:08.612Z,4.32
2022-12-31T19:24:10.317Z,4.47
2022-12-31T19:29:11.771Z,5.90
2022-12-31T19:34:13.396Z,5.85
2022-12-31T19:39:14.872Z,4.93
2022-12-31T19:44:16.334Z,6.53
2022-12-31T19:49:17.818Z,5.85
2022-12-31T19:54:19.297Z,6.38
2022-12-31T19:59:20.790Z,5.65
2022-12-31T20:04:22.222Z,5.00
2022-12-31T20:09:23.748Z,5.35
2022-12-31T20:14:25.239Z,5.40
2022-12-31T20:19:26.680Z,6.22
2022-12-31T20:24:28.177Z,4.20
2022-12-31T20:29:29.807Z,5.57
2022-12-31T20:34:31.284Z,8.27
2022-12-31T20:39:32.801Z,6.45
2022-12-31T20:44:34.271Z,5.53
2022-12-31T20:50:09.824Z,4.65
2022-12-31T20:54:57.117Z,6.35
2022-12-31T20:59:58.587Z,4.35
2022-12-31T21:05:00.206Z,4.78
2022-12-31T21:10:01.783Z,4.38
2022-12-31T21:15:03.226Z,4.30
2022-12-31T21:20:04.715Z,4.47
2022-12-31T21:25:06.195Z,4.97
2022-12-31T21:30:23.117Z,3.92
2022-12-31T21:35:43.493Z,6.78
2022-12-31T21:40:46.280Z,4.93
2022-12-31T21:45:47.749Z,4.70
2022-12-31T21:50:49.221Z,4.65
2022-12-31T21:55:50.880Z,5.80
2022-12-31T22:00:52.341Z,5.18
2022-12-31T22:05:53.825Z,3.88
2022-12-31T22:10:55.348Z,5.38
2022-12-31T22:16:03.972Z,5.07
2022-12-31T22:21:09.621Z,6.10
2022-12-31T22:26:15.366Z,5.53
2022-12-31T22:31:17.089Z,8.45
2022-12-31T22:36:18.614Z,4.50
2022-12-31T22:41:20.088Z,4.32
2022-12-31T22:46:21.600Z,4.72
2022-12-31T22:51:23.293Z,4.57
2022-12-31T22:56:24.723Z,5.70
2022-12-31T23:01:26.198Z,5.25
2022-12-31T23:06:27.732Z,9.68
2022-12-31T23:11:29.433Z,8.05
2022-12-31T23:16:30.976Z,8.65
2022-12-31T23:21:32.498Z,8.70
2022-12-31T23:26:33.967Z,5.78
2022-12-31T23:31:35.455Z,7.32
2022-12-31T23:36:36.941Z,7.63
2022-12-31T23:41:38.411Z,10.98
2022-12-31T23:46:39.900Z,6.03
2022-12-31T23:51:41.402Z,7.38
2022-12-31T23:56:42.844Z,6.68
